Time;durP1;ratioP1;P1;durP2;ratioP2;P2;SDS_P1;SDS_P2;PMS_P1;PMS_P2;Temp;Humidity;BMP_temperature;BMP_pressure;BME280_temperature;BME280_humidity;BME280_pressure;Samples;Min_cycle;Max_cycle;Signal;HPM_P1;HPM_P2
2023/12/05 00:02:23;;;;;;;8.13;6.90;;;16.00;64.00;;;;;;4154082;28;20407;-52
2023/12/05 00:05:05;;;;;;;7.63;6.70;;;16.00;64.60;;;;;;4196664;28;20579;-50
2023/12/05 00:07:46;;;;;;;7.30;6.63;;;16.00;62.90;;;;;;4202577;28;20182;-49
2023/12/05 00:10:26;;;;;;;7.38;6.68;;;15.90;62.60;;;;;;4203841;28;20057;-48
2023/12/05 00:13:08;;;;;;;7.18;6.47;;;15.90;63.80;;;;;;4203741;28;20059;-48
2023/12/05 00:15:49;;;;;;;6.97;6.25;;;15.90;64.30;;;;;;4200487;28;20105;-51
2023/12/05 00:18:32;;;;;;;9.10;7.57;;;15.80;63.00;;;;;;4158374;28;20061;-51
2023/12/05 00:21:13;;;;;;;8.63;6.00;;;15.70;62.60;;;;;;4158759;28;20052;-52
2023/12/05 00:23:54;;;;;;;7.50;6.70;;;15.70;64.30;;;;;;4186164;28;20063;-55
2023/12/05 00:26:35;;;;;;;7.32;6.57;;;15.50;64.10;;;;;;4197174;28;20051;-57
2023/12/05 00:29:16;;;;;;;8.68;7.78;;;15.50;64.20;;;;;;4189847;28;20059;-55
2023/12/05 00:31:57;;;;;;;7.20;6.28;;;15.40;63.50;;;;;;4188771;28;20141;-50
2023/12/05 00:34:40;;;;;;;8.18;6.80;;;15.30;63.40;;;;;;4188589;28;20178;-50
2023/12/05 00:37:21;;;;;;;8.68;7.45;;;15.30;65.00;;;;;;4189788;28;20521;-51
2023/12/05 00:40:01;;;;;;;9.27;8.03;;;15.30;64.30;;;;;;4177193;28;20064;-49
2023/12/05 00:42:43;;;;;;;7.63;6.80;;;15.40;65.30;;;;;;4188955;28;20444;-52
2023/12/05 00:45:24;;;;;;;11.02;7.95;;;15.50;62.50;;;;;;4200461;28;20105;-49
2023/12/05 00:48:05;;;;;;;8.95;8.02;;;15.60;62.40;;;;;;4157663;28;20056;-49
2023/12/05 00:50:49;;;;;;;8.85;7.22;;;15.60;63.40;;;;;;4188718;28;20097;-53
2023/12/05 00:53:31;;;;;;;9.93;8.93;;;15.70;62.60;;;;;;4189502;28;20067;-51
2023/12/05 00:56:14;;;;;;;8.20;7.30;;;15.80;63.20;;;;;;4180776;28;20667;-49
2023/12/05 00:58:59;;;;;;;9.98;7.82;;;15.90;61.40;;;;;;4206469;28;20063;-52
2023/12/05 01:01:40;;;;;;;9.05;8.07;;;16.00;61.90;;;;;;4206160;28;20054;-53
2023/12/05 01:04:21;;;;;;;9.18;7.47;;;16.00;61.60;;;;;;4205702;28;20563;-54
2023/12/05 01:07:04;;;;;;;8.80;7.60;;;16.10;62.00;;;;;;4187616;28;20262;-50
2023/12/05 01:09:45;;;;;;;10.13;8.18;;;16.10;62.50;;;;;;4189350;28;20047;-48
2023/12/05 01:12:26;;;;;;;8.88;7.65;;;16.20;61.70;;;;;;4189468;28;20051;-48
2023/12/05 01:15:12;;;;;;;9.10;7.85;;;16.20;59.60;;;;;;4188395;28;20380;-51
2023/12/05 01:17:53;;;;;;;9.82;8.93;;;16.20;60.40;;;;;;4186896;28;20186;-52
2023/12/05 01:20:35;;;;;;;8.18;7.25;;;16.20;57.20;;;;;;4189223;28;20141;-49
2023/12/05 01:23:17;;;;;;;8.32;6.53;;;16.10;58.80;;;;;;4188728;28;20137;-52
2023/12/05 01:25:58;;;;;;;9.00;8.10;;;16.00;60.10;;;;;;4168658;28;20086;-54
2023/12/05 01:28:39;;;;;;;10.07;7.70;;;15.90;60.30;;;;;;4205334;28;20052;-53
2023/12/05 01:31:20;;;;;;;9.55;8.25;;;15.70;59.90;;;;;;4205317;28;20474;-51
2023/12/05 01:34:01;;;;;;;10.05;8.13;;;15.60;60.90;;;;;;4205967;28;20047;-48
2023/12/05 01:36:42;;;;;;;8.85;7.95;;;15.50;62.50;;;;;;4197192;28;20055;-54
2023/12/05 01:39:25;;;;;;;9.27;8.38;;;15.40;64.00;;;;;;4187217;28;20052;-51
2023/12/05 01:42:06;;;;;;;9.60;8.32;;;15.40;62.20;;;;;;4189175;28;20101;-49
2023/12/05 01:44:47;;;;;;;9.70;8.43;;;15.50;59.90;;;;;;4202043;28;20396;-52
2023/12/05 01:47:28;;;;;;;8.73;7.82;;;15.50;57.90;;;;;;4177113;28;20076;-48
2023/12/05 01:50:14;;;;;;;9.52;8.40;;;15.60;59.00;;;;;;4186534;28;20076;-49
2023/12/05 01:53:00;;;;;;;9.30;7.63;;;15.70;58.80;;;;;;4188172;28;20158;-49
2023/12/05 01:55:43;;;;;;;9.98;8.90;;;15.70;58.70;;;;;;4187663;28;20178;-53
2023/12/05 01:58:25;;;;;;;9.27;8.38;;;15.70;59.80;;;;;;4172118;28;20068;-51
2023/12/05 02:01:08;;;;;;;10.05;8.23;;;15.80;59.50;;;;;;4165397;28;20060;-49
2023/12/05 02:03:49;;;;;;;9.90;8.48;;;15.90;59.30;;;;;;4174074;28;20118;-49
2023/12/05 02:06:30;;;;;;;11.27;8.27;;;16.00;58.30;;;;;;4193145;28;20039;-53
2023/12/05 02:09:13;;;;;;;9.43;7.93;;;15.90;57.40;;;;;;4204894;28;20067;-54
2023/12/05 02:11:56;;;;;;;8.60;7.53;;;15.90;57.80;;;;;;4191826;28;20094;-51
2023/12/05 02:14:37;;;;;;;9.27;8.20;;;15.90;57.30;;;;;;4187860;28;20536;-53
2023/12/05 02:17:28;;;;;;;9.98;8.52;;;15.90;57.40;;;;;;4177516;28;20056;-53
2023/12/05 02:20:15;;;;;;;9.82;8.90;;;15.80;58.10;;;;;;4188541;28;20090;-52
2023/12/05 02:23:26;;;;;;;9.38;8.18;;;15.70;58.60;;;;;;4187766;28;20121;-52
2023/12/05 02:26:10;;;;;;;9.48;8.48;;;15.70;57.60;;;;;;4171450;28;20102;-53
2023/12/05 02:28:52;;;;;;;9.55;8.13;;;15.70;57.80;;;;;;4187756;28;20051;-49
2023/12/05 02:31:34;;;;;;;9.25;6.82;;;15.60;58.10;;;;;;4171411;28;20147;-51
2023/12/05 02:34:15;;;;;;;8.85;7.95;;;15.70;60.20;;;;;;4164775;28;20052;-49
2023/12/05 02:37:07;;;;;;;9.27;8.25;;;15.70;59.50;;;;;;4203657;28;20050;-48
2023/12/05 02:39:58;;;;;;;10.23;9.23;;;15.80;57.20;;;;;;4204154;28;20109;-47
2023/12/05 02:42:40;;;;;;;9.88;8.32;;;15.90;58.30;;;;;;4203554;28;20173;-48
2023/12/05 02:45:25;;;;;;;9.73;8.70;;;15.90;58.50;;;;;;4200970;28;20097;-49
2023/12/05 02:48:10;;;;;;;8.57;7.65;;;15.90;57.50;;;;;;4204811;28;20096;-50
2023/12/05 02:50:53;;;;;;;8.77;7.35;;;15.90;59.10;;;;;;4204613;28;20047;-50
2023/12/05 02:53:34;;;;;;;8.13;7.30;;;15.90;59.80;;;;;;4192040;28;20055;-48
2023/12/05 02:56:15;;;;;;;9.63;8.40;;;15.90;59.50;;;;;;4166311;28;20500;-48
2023/12/05 02:58:57;;;;;;;9.90;8.90;;;15.90;58.70;;;;;;4157728;28;20044;-47
2023/12/05 03:01:42;;;;;;;10.38;9.27;;;15.90;58.00;;;;;;4184707;28;20094;-48
2023/12/05 03:04:23;;;;;;;9.63;8.18;;;16.00;59.00;;;;;;4188751;28;20403;-51
2023/12/05 03:07:04;;;;;;;9.73;8.48;;;16.00;58.40;;;;;;4204254;28;20082;-51
2023/12/05 03:09:46;;;;;;;10.27;9.18;;;16.00;58.90;;;;;;4203506;28;20597;-50
2023/12/05 03:12:28;;;;;;;10.05;8.75;;;15.90;59.10;;;;;;4170570;28;20056;-50
2023/12/05 03:15:10;;;;;;;10.13;9.02;;;16.00;57.10;;;;;;4190889;28;20051;-49
2023/12/05 03:17:52;;;;;;;;;;;16.00;58.50;;;;;;4193674;28;20051;-49
2023/12/05 03:20:34;;;;;;;10.38;8.75;;;16.00;59.60;;;;;;4186678;28;20050;-48
2023/12/05 03:23:18;;;;;;;9.00;7.55;;;15.90;59.20;;;;;;4170664;28;20063;-48
2023/12/05 03:25:58;;;;;;;11.48;9.52;;;15.90;59.70;;;;;;4201983;28;20059;-49
2023/12/05 03:28:40;;;;;;;11.18;9.60;;;15.90;59.20;;;;;;4203651;28;20502;-48
2023/12/05 03:31:21;;;;;;;10.45;9.10;;;15.90;58.10;;;;;;4203932;28;20063;-49
2023/12/05 03:34:03;;;;;;;10.48;8.73;;;15.80;59.10;;;;;;4193818;28;20054;-51
2023/12/05 03:36:44;;;;;;;10.05;9.00;;;15.80;59.00;;;;;;4203458;28;20178;-49
2023/12/05 03:39:25;;;;;;;11.05;9.85;;;15.90;58.30;;;;;;4203282;28;20059;-48
2023/12/05 03:42:07;;;;;;;9.85;8.48;;;15.80;58.90;;;;;;4190890;28;20051;-49
2023/12/05 03:44:48;;;;;;;10.15;8.35;;;15.80;59.20;;;;;;4180771;28;20047;-47
2023/12/05 03:47:29;;;;;;;9.85;8.52;;;15.80;59.10;;;;;;4203995;28;20051;-49
2023/12/05 03:50:12;;;;;;;10.10;8.85;;;15.90;58.10;;;;;;4196557;28;20437;-53
2023/12/05 03:52:53;;;;;;;10.75;8.90;;;15.90;57.90;;;;;;4171937;28;20599;-52
2023/12/05 03:55:34;;;;;;;11.38;8.90;;;15.80;58.60;;;;;;4190500;28;20506;-54
2023/12/05 03:58:17;;;;;;;11.77;10.32;;;15.80;58.30;;;;;;4170132;28;20064;-52
2023/12/05 04:00:58;;;;;;;9.75;8.27;;;15.80;57.80;;;;;;4171220;28;20467;-48
2023/12/05 04:03:39;;;;;;;10.20;9.15;;;15.80;56.30;;;;;;4186193;28;20056;-51
2023/12/05 04:06:22;;;;;;;10.82;9.10;;;15.80;57.30;;;;;;4178504;28;20263;-50
2023/12/05 04:09:04;;;;;;;11.02;9.68;;;15.70;57.80;;;;;;4186109;28;20104;-49
2023/12/05 04:11:45;;;;;;;10.93;9.80;;;15.70;58.50;;;;;;4170040;28;20522;-52
2023/12/05 04:14:26;;;;;;;11.88;9.77;;;15.70;57.90;;;;;;4181224;28;20055;-49
2023/12/05 04:17:08;;;;;;;10.73;9.63;;;15.70;57.60;;;;;;4197411;28;20055;-50
2023/12/05 04:19:48;;;;;;;12.35;9.27;;;15.60;59.10;;;;;;4186446;28;20583;-54
2023/12/05 04:22:31;;;;;;;11.07;8.80;;;15.60;60.40;;;;;;4181686;28;20178;-54
2023/12/05 04:25:12;;;;;;;10.15;8.88;;;15.60;57.50;;;;;;4179997;28;20518;-51
2023/12/05 04:27:53;;;;;;;12.25;9.82;;;15.60;58.10;;;;;;4183566;28;20063;-53
2023/12/05 04:30:34;;;;;;;11.65;9.60;;;15.50;58.20;;;;;;4170456;28;20044;-52
2023/12/05 04:33:15;;;;;;;11.23;9.65;;;15.40;58.60;;;;;;4175911;28;20085;-52
2023/12/05 04:35:56;;;;;;;11.25;9.18;;;15.40;57.10;;;;;;4189046;28;20047;-52
2023/12/05 04:38:39;;;;;;;12.65;9.85;;;15.40;58.40;;;;;;4186556;28;20067;-51
2023/12/05 04:41:20;;;;;;;13.00;9.70;;;15.40;57.70;;;;;;4184286;28;20144;-51
2023/12/05 04:44:01;;;;;;;11.23;9.88;;;15.40;57.60;;;;;;4186353;28;20074;-53
2023/12/05 04:46:42;;;;;;;11.50;9.85;;;15.40;57.20;;;;;;4200274;28;20543;-51
2023/12/05 04:49:24;;;;;;;11.23;9.48;;;15.40;57.30;;;;;;4203182;28;20509;-51
2023/12/05 04:52:05;;;;;;;11.95;10.63;;;15.40;57.30;;;;;;4203174;28;20218;-50
2023/12/05 04:54:47;;;;;;;12.50;9.30;;;15.30;57.70;;;;;;4185799;28;20490;-52
2023/12/05 04:57:28;;;;;;;12.13;9.48;;;15.30;57.20;;;;;;4172714;28;20107;-53
2023/12/05 05:00:12;;;;;;;11.68;9.80;;;15.30;56.40;;;;;;4170079;28;20056;-53
2023/12/05 05:02:53;;;;;;;10.75;9.38;;;15.30;58.60;;;;;;4186391;28;20171;-50
2023/12/05 05:05:34;;;;;;;9.82;8.77;;;15.20;58.60;;;;;;4197479;28;20060;-52
2023/12/05 05:08:16;;;;;;;10.80;9.65;;;15.20;58.70;;;;;;4206415;28;20051;-52
2023/12/05 05:10:58;;;;;;;;;;;15.10;58.70;;;;;;4205576;28;20621;-53
2023/12/05 05:13:39;;;;;;;11.40;10.30;;;15.10;58.60;;;;;;4193206;28;19927;-51
2023/12/05 05:16:26;;;;;;;10.82;9.27;;;15.20;58.80;;;;;;4186302;28;20054;-53
2023/12/05 05:19:07;;;;;;;10.82;9.73;;;15.20;57.60;;;;;;4187815;28;20407;-51
2023/12/05 05:21:48;;;;;;;11.45;9.15;;;15.30;57.10;;;;;;4188824;28;20134;-53
2023/12/05 05:24:29;;;;;;;10.45;9.10;;;15.40;58.00;;;;;;4190086;28;20055;-51
2023/12/05 05:27:13;;;;;;;11.48;10.13;;;15.40;58.60;;;;;;4156830;28;20115;-51
2023/12/05 05:29:54;;;;;;;10.48;9.30;;;15.40;56.40;;;;;;4188475;28;20056;-51
2023/12/05 05:32:36;;;;;;;11.63;9.90;;;15.40;56.30;;;;;;4188360;28;20055;-53
2023/12/05 05:35:17;;;;;;;10.27;9.18;;;15.40;57.30;;;;;;4188259;28;20088;-52
2023/12/05 05:37:59;;;;;;;11.20;9.18;;;15.40;56.30;;;;;;4183633;28;20631;-49
2023/12/05 05:40:42;;;;;;;10.63;9.48;;;15.40;55.80;;;;;;4188656;28;20145;-52
2023/12/05 05:43:24;;;;;;;12.20;10.25;;;15.50;56.00;;;;;;4191613;28;20059;-48
2023/12/05 05:46:05;;;;;;;12.13;10.27;;;15.50;56.90;;;;;;4202051;28;20051;-51
2023/12/05 05:48:46;;;;;;;10.43;9.10;;;15.50;56.50;;;;;;4205061;28;20096;-51
2023/12/05 05:51:27;;;;;;;11.23;10.00;;;15.40;57.20;;;;;;4205374;28;20051;-58
2023/12/05 05:54:09;;;;;;;12.63;10.40;;;15.50;56.40;;;;;;4194129;28;20062;-58
2023/12/05 05:56:50;;;;;;;11.70;10.02;;;15.50;57.50;;;;;;4188301;28;20514;-56
2023/12/05 05:59:32;;;;;;;11.27;10.07;;;15.50;58.30;;;;;;4188182;28;20055;-55
2023/12/05 06:02:13;;;;;;;12.68;9.35;;;15.50;57.50;;;;;;4188197;28;20063;-56
2023/12/05 06:04:54;;;;;;;12.25;10.80;;;15.50;57.50;;;;;;4191363;28;20054;-56
2023/12/05 06:07:35;;;;;;;10.48;9.10;;;15.60;57.50;;;;;;4188738;28;20047;-56
2023/12/05 06:10:16;;;;;;;13.32;10.10;;;15.60;56.00;;;;;;4173440;28;20099;-57
2023/12/05 06:12:57;;;;;;;11.13;9.30;;;15.60;56.40;;;;;;4173147;28;20438;-54
2023/12/05 06:15:40;;;;;;;11.20;9.70;;;15.50;56.50;;;;;;4187924;28;20120;-56
2023/12/05 06:18:21;;;;;;;11.50;9.70;;;15.50;57.80;;;;;;4205519;28;20124;-57
2023/12/05 06:21:02;;;;;;;11.60;10.30;;;15.50;56.30;;;;;;4199850;28;20213;-53
2023/12/05 06:23:43;;;;;;;11.10;9.90;;;15.50;56.40;;;;;;4188142;28;20044;-56
2023/12/05 06:26:24;;;;;;;11.90;9.52;;;15.60;58.00;;;;;;4203016;28;20088;-56
2023/12/05 06:29:06;;;;;;;12.52;10.88;;;15.60;58.10;;;;;;4204859;28;20153;-57
2023/12/05 06:31:48;;;;;;;11.20;9.82;;;15.50;57.40;;;;;;4199914;28;20055;-56
2023/12/05 06:34:29;;;;;;;12.63;11.30;;;15.50;57.80;;;;;;4171353;28;20052;-57
2023/12/05 06:37:10;;;;;;;11.55;10.32;;;15.40;56.90;;;;;;4165453;28;20395;-57
2023/12/05 06:39:51;;;;;;;13.65;10.77;;;15.30;57.00;;;;;;4187850;28;20055;-57
2023/12/05 06:42:32;;;;;;;13.60;10.60;;;15.20;57.10;;;;;;4187922;28;20055;-52
2023/12/05 06:45:14;;;;;;;11.73;9.75;;;15.30;56.50;;;;;;4190894;28;20472;-56
2023/12/05 06:47:56;;;;;;;10.50;9.45;;;15.30;57.00;;;;;;4187831;28;20518;-58
2023/12/05 06:50:36;;;;;;;14.00;10.45;;;15.20;57.60;;;;;;4187691;28;20059;-58
2023/12/05 06:53:17;;;;;;;13.13;10.88;;;15.30;57.30;;;;;;4183275;28;20109;-57
2023/12/05 06:55:58;;;;;;;12.60;10.52;;;15.20;56.60;;;;;;4181122;28;20055;-55
2023/12/05 06:58:39;;;;;;;12.50;11.07;;;15.20;57.50;;;;;;4187553;28;20063;-57
2023/12/05 07:01:20;;;;;;;13.43;11.27;;;15.30;57.10;;;;;;4170847;28;20518;-55
2023/12/05 07:04:03;;;;;;;11.35;10.15;;;15.20;56.60;;;;;;4176500;28;20094;-57
2023/12/05 07:06:44;;;;;;;12.50;9.63;;;15.20;56.90;;;;;;4180102;28;20059;-54
2023/12/05 07:09:26;;;;;;;13.82;10.85;;;15.10;57.40;;;;;;4179741;28;20121;-56
2023/12/05 07:12:08;;;;;;;12.73;10.43;;;15.10;58.40;;;;;;4188273;28;20051;-53
2023/12/05 07:14:49;;;;;;;13.20;10.35;;;15.20;58.40;;;;;;4170174;28;20056;-57
2023/12/05 07:17:30;;;;;;;11.32;9.02;;;15.20;58.40;;;;;;4186202;28;20601;-50
2023/12/05 07:20:12;;;;;;;12.23;10.00;;;15.20;57.00;;;;;;4187517;28;20055;-53
2023/12/05 07:22:53;;;;;;;12.05;9.65;;;15.30;58.40;;;;;;4186319;28;20051;-50
2023/12/05 07:25:34;;;;;;;12.63;10.27;;;15.30;59.00;;;;;;4187662;28;20071;-52
2023/12/05 07:28:15;;;;;;;12.85;11.27;;;15.30;58.70;;;;;;4186948;28;20070;-51
2023/12/05 07:30:56;;;;;;;12.57;10.98;;;15.30;57.50;;;;;;4183974;28;20047;-53
2023/12/05 07:33:37;;;;;;;12.02;10.73;;;15.30;55.80;;;;;;4155547;28;20385;-50
2023/12/05 07:36:19;;;;;;;12.43;10.82;;;15.30;55.80;;;;;;4159902;28;20098;-54
2023/12/05 07:39:00;;;;;;;12.10;10.80;;;15.30;55.10;;;;;;4153701;28;20049;-53
2023/12/05 07:41:41;;;;;;;12.40;10.80;;;15.40;56.70;;;;;;4175297;28;20066;-54
2023/12/05 07:44:23;;;;;;;11.48;9.88;;;15.40;56.70;;;;;;4186969;28;20122;-51
2023/12/05 07:47:07;;;;;;;12.27;9.80;;;15.40;58.80;;;;;;4169785;28;20059;-52
2023/12/05 07:49:48;;;;;;;13.02;10.77;;;15.40;56.40;;;;;;4186843;28;20114;-54
2023/12/05 07:52:30;;;;;;;12.68;10.73;;;15.50;57.30;;;;;;4198432;28;20502;-50
2023/12/05 07:55:11;;;;;;;11.90;10.13;;;15.50;55.90;;;;;;4168272;28;20194;-53
2023/12/05 07:57:52;;;;;;;11.43;10.18;;;15.50;56.10;;;;;;4173358;28;20056;-54
2023/12/05 08:00:34;;;;;;;12.63;10.77;;;15.50;56.90;;;;;;4203701;28;20055;-48
2023/12/05 08:03:15;;;;;;;11.38;9.25;;;15.50;56.50;;;;;;4171515;28;20064;-51
2023/12/05 08:05:56;;;;;;;13.52;10.48;;;15.60;57.00;;;;;;4177144;28;20515;-53
2023/12/05 08:08:38;;;;;;;12.55;10.57;;;15.60;55.70;;;;;;4185467;28;20051;-53
2023/12/05 08:11:21;;;;;;;11.32;10.13;;;15.60;54.90;;;;;;4186819;28;20071;-53
2023/12/05 08:14:02;;;;;;;13.10;11.68;;;15.70;56.60;;;;;;4181745;28;20048;-50
2023/12/05 08:16:43;;;;;;;13.35;11.95;;;15.70;55.50;;;;;;4176793;28;20530;-51
2023/12/05 08:19:25;;;;;;;13.63;11.15;;;15.70;55.90;;;;;;4197168;28;20090;-49
2023/12/05 08:22:06;;;;;;;13.75;12.30;;;15.70;54.40;;;;;;4181463;28;20056;-53
2023/12/05 08:24:48;;;;;;;12.63;10.43;;;15.60;54.70;;;;;;4199888;28;20100;-51
2023/12/05 08:27:29;;;;;;;12.32;10.77;;;15.50;55.10;;;;;;4199995;28;20051;-50
2023/12/05 08:30:12;;;;;;;13.10;11.70;;;15.50;56.40;;;;;;4201060;28;20833;-51
2023/12/05 08:32:53;;;;;;;12.90;11.60;;;15.40;56.20;;;;;;4200331;28;20092;-51
2023/12/05 08:35:34;;;;;;;11.45;10.32;;;15.40;55.90;;;;;;4200179;28;20054;-47
2023/12/05 08:38:15;;;;;;;13.05;11.30;;;15.40;55.70;;;;;;4201233;28;20055;-50
2023/12/05 08:40:58;;;;;;;13.98;12.57;;;15.50;58.10;;;;;;4203024;28;20543;-49
2023/12/05 08:43:38;;;;;;;11.77;10.65;;;15.60;55.90;;;;;;4203371;28;20149;-50
2023/12/05 08:46:20;;;;;;;13.43;12.00;;;15.70;53.50;;;;;;4202977;28;20082;-47
2023/12/05 08:49:01;;;;;;;11.95;10.70;;;15.80;53.20;;;;;;4203688;28;20063;-46
2023/12/05 08:51:46;;;;;;;14.40;12.68;;;15.90;55.60;;;;;;4202985;28;20059;-51
2023/12/05 08:54:27;;;;;;;13.38;11.10;;;15.90;53.10;;;;;;4199582;28;20141;-48
2023/12/05 08:57:10;;;;;;;12.70;10.68;;;16.00;54.50;;;;;;4202767;28;20067;-48
2023/12/05 08:59:51;;;;;;;14.93;11.98;;;16.00;54.20;;;;;;4202211;28;20490;-48
2023/12/05 09:02:33;;;;;;;12.57;11.02;;;15.90;55.70;;;;;;4201107;28;20433;-51
2023/12/05 09:05:14;;;;;;;13.57;11.50;;;15.90;54.20;;;;;;4202959;28;20112;-48
2023/12/05 09:07:56;;;;;;;14.38;11.55;;;15.90;53.00;;;;;;4203532;28;20138;-48
2023/12/05 09:10:37;;;;;;;14.10;11.82;;;15.90;52.30;;;;;;4201684;28;20059;-50
2023/12/05 09:13:20;;;;;;;12.32;10.82;;;15.90;52.50;;;;;;4201598;28;20059;-47
2023/12/05 09:16:01;;;;;;;13.20;11.90;;;15.80;55.00;;;;;;4201738;28;20046;-50
2023/12/05 09:18:42;;;;;;;13.32;11.88;;;15.80;54.00;;;;;;4190754;28;20090;-48
2023/12/05 09:21:23;;;;;;;14.23;12.73;;;15.70;54.60;;;;;;4202224;28;20055;-47
2023/12/05 09:24:08;;;;;;;12.32;11.02;;;15.50;54.70;;;;;;4202055;28;20112;-46
2023/12/05 09:26:48;;;;;;;14.38;11.70;;;15.40;54.60;;;;;;4201244;28;20055;-49
2023/12/05 09:29:31;;;;;;;13.32;10.93;;;15.30;54.00;;;;;;4202489;28;20112;-47
2023/12/05 09:32:12;;;;;;;13.02;11.18;;;15.30;56.70;;;;;;4202531;28;20058;-51
2023/12/05 09:34:53;;;;;;;12.57;10.75;;;15.20;54.80;;;;;;4201589;28;20415;-47
2023/12/05 09:37:34;;;;;;;12.73;11.30;;;15.20;55.00;;;;;;4203405;28;20054;-47
2023/12/05 09:40:15;;;;;;;14.27;11.65;;;15.30;54.60;;;;;;4199528;28;20055;-51
2023/12/05 09:43:00;;;;;;;14.57;11.63;;;15.30;54.10;;;;;;4201536;28;20055;-46
2023/12/05 09:45:45;;;;;;;13.02;11.57;;;15.30;54.60;;;;;;4200723;28;20063;-47
2023/12/05 09:48:29;;;;;;;13.45;12.13;;;15.30;54.80;;;;;;4202663;28;20077;-51
2023/12/05 09:51:11;;;;;;;13.82;11.38;;;15.30;54.50;;;;;;4201857;28;20194;-48
2023/12/05 09:53:55;;;;;;;14.98;12.70;;;15.20;55.00;;;;;;4202395;28;20410;-52
2023/12/05 09:56:36;;;;;;;15.57;13.93;;;15.10;54.60;;;;;;4201407;28;20067;-49
2023/12/05 09:59:20;;;;;;;12.27;10.80;;;15.10;54.50;;;;;;4201009;28;20051;-49
2023/12/05 10:02:04;;;;;;;15.20;12.88;;;15.00;54.60;;;;;;4202725;28;20059;-51
2023/12/05 10:04:46;;;;;;;14.02;11.50;;;15.10;54.80;;;;;;4201824;28;20055;-52
2023/12/05 10:07:28;;;;;;;14.48;11.32;;;15.10;56.00;;;;;;4202422;28;20506;-53
2023/12/05 10:10:09;;;;;;;15.77;13.25;;;15.10;55.00;;;;;;4202757;28;20090;-50
2023/12/05 10:12:51;;;;;;;14.02;11.45;;;15.20;54.40;;;;;;4201975;28;20124;-51
2023/12/05 10:15:32;;;;;;;;;;;15.20;54.80;;;;;;4202721;28;20047;-51
2023/12/05 10:18:14;;;;;;;18.47;15.57;;;15.20;55.10;;;;;;4202814;28;20061;-48
2023/12/05 10:20:57;;;;;;;15.55;13.18;;;15.10;54.50;;;;;;4202113;28;20410;-49
2023/12/05 10:23:39;;;;;;;16.02;12.70;;;15.10;54.60;;;;;;4201339;28;20047;-49
2023/12/05 10:26:21;;;;;;;14.57;12.82;;;15.00;54.50;;;;;;4185836;28;20454;-48
2023/12/05 10:29:02;;;;;;;15.65;11.90;;;14.90;55.50;;;;;;4200937;28;20055;-48
2023/12/05 10:31:43;;;;;;;18.13;12.77;;;14.80;55.60;;;;;;4199952;28;20096;-51
2023/12/05 10:34:25;;;;;;;14.70;11.85;;;14.80;56.50;;;;;;4200660;28;20083;-51
2023/12/05 10:37:06;;;;;;;15.25;13.05;;;14.80;56.20;;;;;;4201614;28;20727;-50
2023/12/05 10:39:49;;;;;;;15.40;13.45;;;14.80;56.10;;;;;;4200632;28;20510;-49
2023/12/05 10:42:30;;;;;;;17.10;13.48;;;14.80;55.20;;;;;;4201602;28;20059;-52
2023/12/05 10:45:12;;;;;;;17.17;13.20;;;14.90;54.30;;;;;;4200142;28;20443;-52
2023/12/05 10:47:54;;;;;;;18.00;12.82;;;14.90;55.40;;;;;;4189126;28;20063;-52
2023/12/05 10:50:36;;;;;;;18.23;13.88;;;14.90;55.60;;;;;;4200671;28;20050;-48
2023/12/05 10:53:18;;;;;;;15.68;13.52;;;14.90;55.80;;;;;;4200990;28;20082;-50
2023/12/05 10:56:10;;;;;;;;;;;14.90;54.50;;;;;;4202018;28;20047;-49
2023/12/05 10:58:53;;;;;;;16.42;12.70;;;15.00;54.40;;;;;;4199579;28;20056;-48
2023/12/05 11:01:35;;;;;;;15.98;13.40;;;15.00;55.90;;;;;;4200212;28;20141;-50
2023/12/05 11:04:16;;;;;;;;;;;15.00;54.70;;;;;;4199880;28;20551;-49
2023/12/05 11:06:59;;;;;;;18.58;14.95;;;15.00;53.60;;;;;;4200820;28;19969;-49
2023/12/05 11:09:43;;;;;;;18.50;14.35;;;15.00;53.30;;;;;;4201550;28;20055;-50
2023/12/05 11:12:25;;;;;;;18.73;14.38;;;14.90;54.70;;;;;;4200714;28;20104;-52
2023/12/05 11:15:09;;;;;;;18.27;14.95;;;14.90;54.60;;;;;;4195958;28;20055;-55
2023/12/05 11:17:51;;;;;;;17.25;13.75;;;14.90;55.70;;;;;;4182899;28;20641;-52
2023/12/05 11:20:54;;;;;;;18.38;14.88;;;14.80;54.50;;;;;;4183585;28;20380;-54
2023/12/05 11:23:59;;;;;;;20.90;15.70;;;14.80;55.30;;;;;;4174369;28;21498;-53
2023/12/05 11:27:10;;;;;;;18.55;14.75;;;14.80;54.00;;;;;;4181020;28;20071;-54
2023/12/05 11:30:20;;;;;;;21.13;15.88;;;14.80;53.90;;;;;;4180113;28;20060;-53
2023/12/05 11:33:14;;;;;;;19.15;15.07;;;14.80;54.40;;;;;;4171025;28;20060;-52
2023/12/05 11:36:10;;;;;;;20.17;15.30;;;14.70;54.20;;;;;;4199422;28;20070;-53
2023/12/05 11:38:54;;;;;;;19.38;15.77;;;14.60;54.80;;;;;;4197162;28;20059;-54
2023/12/05 11:41:35;;;;;;;21.08;16.08;;;14.60;54.70;;;;;;4199290;28;20701;-55
2023/12/05 11:44:20;;;;;;;20.67;16.70;;;14.60;54.80;;;;;;4183346;28;20050;-54
2023/12/05 11:47:03;;;;;;;22.67;15.13;;;14.60;54.80;;;;;;4181555;28;20093;-55
2023/12/05 11:49:53;;;;;;;20.92;14.45;;;14.60;55.70;;;;;;4200648;28;20059;-56
2023/12/05 11:52:39;;;;;;;20.00;14.27;;;14.60;56.20;;;;;;4190809;28;20055;-55
2023/12/05 11:55:23;;;;;;;19.83;15.02;;;14.70;56.40;;;;;;4183275;28;20051;-55
2023/12/05 11:58:04;;;;;;;21.40;15.50;;;14.70;55.20;;;;;;4182407;28;20060;-55
2023/12/05 12:00:46;;;;;;;18.83;15.47;;;14.70;55.70;;;;;;4178899;28;20094;-53
2023/12/05 12:03:28;;;;;;;19.45;16.13;;;14.60;56.60;;;;;;4199822;28;20293;-52
2023/12/05 12:06:09;;;;;;;21.10;15.45;;;14.50;56.40;;;;;;4201228;28;20055;-55
2023/12/05 12:08:53;;;;;;;19.50;14.10;;;14.50;55.30;;;;;;4199963;28;20124;-55
2023/12/05 12:11:36;;;;;;;21.90;15.32;;;14.60;56.80;;;;;;4200662;28;20087;-55
2023/12/05 12:14:19;;;;;;;22.08;16.45;;;14.60;56.40;;;;;;4200551;28;20136;-52
2023/12/05 12:17:00;;;;;;;21.13;15.80;;;14.60;56.50;;;;;;4203592;28;20129;-53
2023/12/05 12:19:42;;;;;;;19.77;14.75;;;14.60;57.00;;;;;;4203561;28;20185;-53
2023/12/05 12:22:23;;;;;;;21.10;16.40;;;14.70;57.20;;;;;;4203974;28;20046;-52
2023/12/05 12:25:06;;;;;;;21.98;15.65;;;14.60;56.80;;;;;;4203956;28;20135;-51
2023/12/05 12:27:48;;;;;;;21.35;16.25;;;14.60;55.90;;;;;;4203386;28;20055;-52
2023/12/05 12:30:35;;;;;;;24.45;16.10;;;14.50;57.00;;;;;;4202995;28;20051;-53
2023/12/05 12:33:16;;;;;;;21.17;15.18;;;14.50;58.50;;;;;;4203408;28;20237;-51
2023/12/05 12:35:58;;;;;;;20.05;14.85;;;14.50;58.10;;;;;;4200972;28;20494;-52
2023/12/05 12:38:41;;;;;;;20.63;15.02;;;14.50;58.50;;;;;;4201309;28;20051;-50
2023/12/05 12:41:22;;;;;;;21.63;15.77;;;14.50;57.40;;;;;;4197725;28;20116;-53
2023/12/05 12:44:06;;;;;;;22.77;15.90;;;14.50;58.10;;;;;;4203375;28;20556;-52
2023/12/05 12:46:48;;;;;;;22.92;16.33;;;14.50;58.70;;;;;;4201634;28;20063;-52
2023/12/05 12:49:29;;;;;;;23.45;16.77;;;14.50;57.90;;;;;;4202795;28;20554;-54
2023/12/05 12:52:11;;;;;;;21.55;15.32;;;14.40;59.00;;;;;;4201926;28;20096;-51
2023/12/05 12:54:52;;;;;;;22.90;13.63;;;14.40;60.20;;;;;;4202936;28;20051;-53
2023/12/05 12:57:33;;;;;;;20.83;16.23;;;14.40;59.50;;;;;;4203317;28;20051;-53
2023/12/05 13:00:18;;;;;;;22.75;15.88;;;14.40;58.90;;;;;;4202114;28;20104;-53
2023/12/05 13:03:09;;;;;;;22.88;16.33;;;14.40;60.20;;;;;;4198897;28;20146;-50
2023/12/05 13:05:50;;;;;;;23.15;15.18;;;14.50;61.70;;;;;;4197457;28;20105;-53
2023/12/05 13:08:32;;;;;;;27.27;16.27;;;14.50;61.50;;;;;;4182921;28;20052;-54
2023/12/05 13:11:14;;;;;;;21.50;15.65;;;14.60;59.80;;;;;;4201838;28;20063;-53
2023/12/05 13:13:55;;;;;;;20.65;14.43;;;14.60;61.40;;;;;;4193887;28;20668;-52
2023/12/05 13:16:41;;;;;;;23.02;16.17;;;14.70;60.20;;;;;;4201160;28;20051;-53
2023/12/05 13:19:23;;;;;;;21.50;15.90;;;14.70;61.50;;;;;;4203349;28;20059;-52
2023/12/05 13:22:05;;;;;;;21.00;15.68;;;14.70;59.80;;;;;;4201254;28;20193;-48
2023/12/05 13:24:46;;;;;;;23.27;17.27;;;14.70;60.90;;;;;;4200246;28;20051;-48
2023/12/05 13:27:26;;;;;;;22.15;15.98;;;14.60;61.00;;;;;;4200087;28;20051;-49
2023/12/05 13:30:08;;;;;;;23.15;16.63;;;14.60;61.40;;;;;;4201807;28;20523;-48
2023/12/05 13:32:51;;;;;;;22.55;15.55;;;14.60;61.00;;;;;;4202241;28;20411;-48
2023/12/05 13:35:32;;;;;;;22.17;16.33;;;14.70;60.30;;;;;;4199963;28;20039;-48
2023/12/05 13:38:13;;;;;;;23.35;17.70;;;14.70;60.60;;;;;;4198502;28;20059;-48
2023/12/05 13:40:54;;;;;;;23.73;16.67;;;14.60;60.60;;;;;;4201118;28;20059;-49
2023/12/05 13:43:35;;;;;;;23.17;17.40;;;14.70;61.40;;;;;;4200793;28;20055;-47
2023/12/05 13:46:16;;;;;;;26.02;17.48;;;14.70;62.40;;;;;;4201162;28;20059;-49
2023/12/05 13:49:04;;;;;;;21.42;15.77;;;14.70;61.60;;;;;;4202296;28;20513;-51
2023/12/05 13:51:45;;;;;;;25.83;17.98;;;14.70;61.70;;;;;;4202524;28;20054;-52
2023/12/05 13:54:26;;;;;;;25.48;17.10;;;14.70;60.80;;;;;;4186742;28;20059;-48